Terminal Aerodrome Forecast
Issued by NWS Omaha/Valley, NE

Home | Current Version | Previous Version | Graphics & Text | Print | Product List | Glossary On
Versions: 1 2 3 4 5 6 7 8 9 10 11 12 13 14 15 16 17 18 19 20 21 22 23 24 25 26 27 28 29 30 31 32 33 34 35 36 37 38 39 40 41 42 43 44 45 46 47 48
000
FTUS43 KOAX 201741
TAFOFK
TAF
KOFK 201741Z 2018/2118 16007KT P6SM SCT003 OVC025
      TEMPO 2018/2021 5SM BR OVC003
     FM202100 14006KT 5SM BR OVC008
     FM210000 13006KT 3SM BR VCSH OVC003
     FM210200 13005KT 1SM -RA BR OVC003
     FM210600 VRB03KT 1/2SM FG OVC003
     FM211500 29004KT 1SM BR OVC003
     FM211600 29005KT P6SM OVC015=

USA.gov is the U.S. government's official web portal to all federal, state and local government web resources and services.